Time;durP1;ratioP1;P1;durP2;ratioP2;P2;SDS_P1;SDS_P2;PMS_P1;PMS_P2;Temp;Humidity;BMP_temperature;BMP_pressure;BME280_temperature;BME280_humidity;BME280_pressure;Samples;Min_cycle;Max_cycle;Signal;HPM_P1;HPM_P2
2022/09/19 00:01:18;;;;;;;3.58;2.35;;;11.50;99.90;;;;;;5051593;28;20025;-45
2022/09/19 00:03:50;;;;;;;5.40;2.22;;;11.40;99.90;;;;;;5050541;28;20028;-45
2022/09/19 00:06:17;;;;;;;3.00;2.00;;;11.30;99.90;;;;;;5051706;28;20028;-47
2022/09/19 00:08:44;;;;;;;4.00;2.30;;;11.30;99.90;;;;;;5051668;28;20197;-53
2022/09/19 00:11:12;;;;;;;3.65;2.03;;;11.30;99.90;;;;;;5051193;28;20016;-47
2022/09/19 00:13:41;;;;;;;4.70;2.25;;;11.20;99.90;;;;;;5051634;28;20064;-45
2022/09/19 00:16:07;;;;;;;4.63;2.50;;;11.10;99.90;;;;;;5050181;28;20031;-50
2022/09/19 00:18:33;;;;;;;4.90;2.88;;;11.10;99.90;;;;;;5051310;28;20112;-50
2022/09/19 00:21:00;;;;;;;5.70;2.83;;;11.00;99.90;;;;;;5051358;28;20112;-45
2022/09/19 00:26:12;;;;;;;5.28;2.72;;;11.00;99.90;;;;;;5051594;28;20101;-45
2022/09/19 00:28:39;;;;;;;5.15;2.40;;;10.90;99.90;;;;;;5051460;28;20033;-45
2022/09/19 00:31:05;;;;;;;3.63;2.10;;;10.90;99.90;;;;;;5051329;28;20025;-46
2022/09/19 00:33:33;;;;;;;4.90;2.80;;;10.90;99.90;;;;;;5051261;28;20021;-44
2022/09/19 00:36:03;;;;;;;5.55;2.90;;;10.90;99.90;;;;;;5051237;28;20025;-48
2022/09/19 00:38:30;;;;;;;5.93;2.67;;;10.80;99.90;;;;;;5051166;28;20039;-46
2022/09/19 00:40:57;;;;;;;3.42;2.22;;;10.80;99.90;;;;;;5051083;28;20029;-49
2022/09/19 00:43:25;;;;;;;4.68;2.58;;;10.80;99.90;;;;;;5051219;28;20057;-48
2022/09/19 00:45:52;;;;;;;6.15;3.10;;;10.80;99.90;;;;;;5050838;28;20103;-50
2022/09/19 00:48:21;;;;;;;7.95;3.83;;;10.80;99.90;;;;;;5051215;28;20041;-44
2022/09/19 00:50:52;;;;;;;5.40;2.90;;;10.70;99.90;;;;;;5050661;28;20491;-51
2022/09/19 00:53:21;;;;;;;5.30;2.65;;;10.70;99.90;;;;;;5051087;28;20029;-52
2022/09/19 00:55:50;;;;;;;3.95;2.08;;;10.70;99.90;;;;;;5050922;28;20029;-49
2022/09/19 00:58:29;;;;;;;6.57;2.63;;;10.70;99.90;;;;;;5050950;28;20060;-47
2022/09/19 01:00:57;;;;;;;3.30;2.05;;;10.70;99.90;;;;;;5050689;28;20342;-49
2022/09/19 01:03:25;;;;;;;4.03;2.20;;;10.60;99.90;;;;;;5050973;28;20033;-47
2022/09/19 01:06:27;;;;;;;5.30;2.40;;;10.60;99.90;;;;;;5050867;28;20067;-49
2022/09/19 01:09:08;;;;;;;3.58;1.98;;;10.50;99.90;;;;;;5050690;28;20037;-51
2022/09/19 01:11:59;;;;;;;4.47;2.28;;;10.50;99.90;;;;;;5049957;28;20063;-47
2022/09/19 01:14:39;;;;;;;4.60;2.17;;;10.30;99.90;;;;;;5049020;28;20029;-45
2022/09/19 01:17:19;;;;;;;3.90;1.83;;;10.30;99.90;;;;;;5050396;28;20045;-46
2022/09/19 01:19:59;;;;;;;4.00;2.40;;;10.30;99.90;;;;;;5050860;28;20021;-48
2022/09/19 01:23:06;;;;;;;2.92;1.95;;;10.20;99.90;;;;;;5050802;28;20060;-47
2022/09/19 01:26:10;;;;;;;5.18;2.05;;;10.20;99.90;;;;;;5050977;28;20029;-44
2022/09/19 01:29:00;;;;;;;3.35;2.17;;;10.10;99.90;;;;;;5035456;28;20040;-46
2022/09/19 01:31:31;;;;;;;4.82;2.03;;;10.00;99.90;;;;;;5050449;28;20029;-46
2022/09/19 01:34:17;;;;;;;5.28;2.20;;;10.00;99.90;;;;;;5050776;28;20056;-54
2022/09/19 01:37:12;;;;;;;3.35;2.10;;;10.00;99.90;;;;;;5050599;28;20029;-48
2022/09/19 01:39:41;;;;;;;4.68;2.00;;;9.90;99.90;;;;;;5050575;28;20033;-46
2022/09/19 01:42:12;;;;;;;5.50;2.33;;;9.90;99.90;;;;;;5050102;28;20121;-49
2022/09/19 01:44:37;;;;;;;4.13;2.22;;;9.90;99.90;;;;;;5050677;28;20109;-46
2022/09/19 01:47:13;;;;;;;7.35;2.53;;;9.80;99.90;;;;;;5050114;28;20128;-44
2022/09/19 01:50:34;;;;;;;4.20;2.15;;;9.60;99.90;;;;;;5050420;28;20033;-50
2022/09/19 01:53:50;;;;;;;8.50;2.40;;;9.40;99.90;;;;;;4977174;28;20505;-50
2022/09/19 01:56:47;;;;;;;4.50;2.65;;;9.30;99.90;;;;;;4988935;28;20113;-51
2022/09/19 01:59:41;;;;;;;5.07;3.00;;;9.30;99.90;;;;;;4988351;28;20062;-51
2022/09/19 02:02:46;;;;;;;5.47;3.15;;;9.40;99.90;;;;;;5039284;28;20040;-44
2022/09/19 02:05:35;;;;;;;6.50;2.83;;;9.40;99.90;;;;;;5028379;28;20044;-49
2022/09/19 02:08:01;;;;;;;6.30;3.10;;;9.40;99.90;;;;;;5049666;28;20036;-45
2022/09/19 02:10:37;;;;;;;6.80;3.10;;;9.50;99.90;;;;;;5050205;28;20391;-46
2022/09/19 02:13:08;;;;;;;5.65;2.95;;;9.40;99.90;;;;;;5049598;28;20483;-48
2022/09/19 02:15:36;;;;;;;6.03;3.22;;;9.40;99.90;;;;;;5050006;28;20075;-44
2022/09/19 02:18:22;;;;;;;5.47;3.03;;;9.40;99.90;;;;;;5049979;28;20021;-44
2022/09/19 02:20:51;;;;;;;5.07;2.67;;;9.50;99.90;;;;;;5050033;28;20021;-46
2022/09/19 02:23:28;;;;;;;5.13;3.05;;;9.50;99.90;;;;;;5051193;28;20021;-49
2022/09/19 02:25:56;;;;;;;6.43;2.88;;;9.50;99.90;;;;;;5053414;28;20414;-50
2022/09/19 02:28:29;;;;;;;4.60;3.38;;;9.60;99.90;;;;;;5052930;28;20043;-49
2022/09/19 02:30:55;;;;;;;5.80;2.63;;;9.70;99.90;;;;;;5053543;28;20119;-54
2022/09/19 02:33:21;;;;;;;3.67;2.22;;;9.70;99.90;;;;;;5053382;28;20079;-49
2022/09/19 02:35:51;;;;;;;4.68;2.38;;;9.70;99.90;;;;;;5053288;28;20021;-55
2022/09/19 02:38:31;;;;;;;4.25;2.22;;;9.70;99.90;;;;;;5053442;28;20392;-49
2022/09/19 02:41:21;;;;;;;3.92;1.98;;;9.60;99.90;;;;;;5053193;28;20112;-44
2022/09/19 02:44:01;;;;;;;3.97;1.65;;;9.60;99.90;;;;;;5052733;28;20025;-49
2022/09/19 02:46:38;;;;;;;4.10;2.00;;;9.50;99.90;;;;;;5052892;28;20102;-50
2022/09/19 02:49:13;;;;;;;5.63;2.40;;;9.40;99.90;;;;;;5053207;28;20032;-52
2022/09/19 02:51:44;;;;;;;3.38;2.15;;;9.30;99.90;;;;;;5053125;28;20033;-48
2022/09/19 02:54:28;;;;;;;6.47;1.98;;;9.30;99.90;;;;;;5052974;28;20502;-46
2022/09/19 02:56:59;;;;;;;3.20;1.95;;;9.30;99.90;;;;;;5053006;28;20055;-43
2022/09/19 02:59:30;;;;;;;4.13;2.00;;;9.40;99.90;;;;;;5051687;28;20068;-46
2022/09/19 03:02:21;;;;;;;6.10;3.42;;;9.40;99.90;;;;;;5052929;28;20660;-44
2022/09/19 03:04:54;;;;;;;3.90;2.33;;;9.40;99.90;;;;;;5045751;28;20100;-51
2022/09/19 03:07:27;;;;;;;5.18;2.30;;;9.40;99.90;;;;;;5052721;28;20119;-46
2022/09/19 03:10:10;;;;;;;3.70;2.10;;;9.50;99.90;;;;;;5053000;28;20037;-47
2022/09/19 03:12:47;;;;;;;5.38;2.15;;;9.50;99.90;;;;;;5052599;28;20459;-46
2022/09/19 03:15:14;;;;;;;4.90;2.00;;;9.50;99.90;;;;;;5052849;28;20087;-51
2022/09/19 03:17:49;;;;;;;5.22;1.88;;;9.50;99.90;;;;;;5052533;28;20027;-46
2022/09/19 03:20:15;;;;;;;3.72;2.30;;;9.60;99.90;;;;;;5053030;28;20029;-50
2022/09/19 03:22:41;;;;;;;4.65;2.50;;;9.60;99.90;;;;;;5053224;28;20028;-54
2022/09/19 03:25:08;;;;;;;8.80;2.63;;;9.60;99.90;;;;;;5052563;28;20575;-48
2022/09/19 03:27:36;;;;;;;4.43;2.33;;;9.60;99.90;;;;;;5052085;28;20043;-49
2022/09/19 03:30:07;;;;;;;4.55;2.30;;;9.60;99.90;;;;;;5052322;28;20087;-45
2022/09/19 03:32:35;;;;;;;3.67;2.35;;;9.70;99.90;;;;;;5052624;28;20021;-46
2022/09/19 03:35:02;;;;;;;3.83;2.08;;;9.70;99.90;;;;;;5051880;28;20108;-46
2022/09/19 03:37:29;;;;;;;4.85;2.05;;;9.70;99.90;;;;;;5052300;28;20025;-48
2022/09/19 03:39:54;;;;;;;4.68;2.33;;;9.70;99.90;;;;;;5052400;28;20032;-51
2022/09/19 03:42:20;;;;;;;3.92;2.38;;;9.80;99.90;;;;;;5052130;28;20028;-52
2022/09/19 03:44:46;;;;;;;4.13;2.40;;;9.80;99.90;;;;;;5052114;28;20025;-47
2022/09/19 03:47:12;;;;;;;5.57;2.40;;;9.90;99.90;;;;;;5051615;28;20052;-48
2022/09/19 03:49:37;;;;;;;5.60;3.13;;;9.90;99.90;;;;;;5051901;28;20020;-46
2022/09/19 03:52:03;;;;;;;5.40;2.50;;;10.00;99.90;;;;;;5051069;28;20033;-50
2022/09/19 03:54:29;;;;;;;6.15;2.97;;;10.00;99.90;;;;;;5051636;28;20025;-46
2022/09/19 03:56:55;;;;;;;5.35;2.80;;;10.10;99.90;;;;;;5052051;28;20021;-46
2022/09/19 03:59:20;;;;;;;6.85;2.83;;;10.10;99.90;;;;;;5051673;28;20053;-44
2022/09/19 04:01:46;;;;;;;7.38;2.55;;;10.10;99.90;;;;;;5051811;28;20067;-44
2022/09/19 04:04:12;;;;;;;4.97;2.35;;;10.20;99.90;;;;;;5051957;28;20067;-44
2022/09/19 04:06:38;;;;;;;5.30;2.47;;;10.20;99.90;;;;;;5051811;28;20036;-44
2022/09/19 04:09:04;;;;;;;5.82;2.13;;;10.20;99.90;;;;;;5051641;28;20047;-44
2022/09/19 04:11:30;;;;;;;4.25;2.08;;;10.30;99.90;;;;;;5051542;28;20195;-44
2022/09/19 04:13:56;;;;;;;4.00;1.85;;;10.30;99.90;;;;;;5051403;28;20028;-46
2022/09/19 04:16:24;;;;;;;3.58;2.13;;;10.30;99.90;;;;;;5051482;28;20052;-44
2022/09/19 04:18:50;;;;;;;5.72;2.00;;;10.30;99.90;;;;;;5051430;28;20053;-45
2022/09/19 04:21:16;;;;;;;4.90;2.33;;;10.30;99.90;;;;;;5051536;28;20036;-48
2022/09/19 04:23:43;;;;;;;4.28;2.20;;;10.30;99.90;;;;;;5051582;28;20059;-48
2022/09/19 04:26:11;;;;;;;3.42;2.10;;;10.20;99.90;;;;;;5051262;28;20066;-51
2022/09/19 04:28:39;;;;;;;4.65;2.10;;;10.20;99.90;;;;;;5050976;28;20029;-47
2022/09/19 04:31:08;;;;;;;3.42;2.00;;;10.30;99.90;;;;;;5051380;28;20021;-45
2022/09/19 04:33:34;;;;;;;4.43;1.90;;;10.30;99.90;;;;;;5051499;28;20036;-44
2022/09/19 04:36:00;;;;;;;2.65;1.67;;;10.30;99.90;;;;;;5051218;28;20029;-50
2022/09/19 04:38:28;;;;;;;4.25;2.00;;;10.30;99.90;;;;;;5051076;28;20032;-50
2022/09/19 04:40:57;;;;;;;3.33;2.03;;;10.30;99.90;;;;;;5051067;28;20133;-50
2022/09/19 04:43:25;;;;;;;3.95;2.10;;;10.40;99.90;;;;;;5051077;28;20111;-53
2022/09/19 04:45:50;;;;;;;2.80;1.70;;;10.40;99.90;;;;;;5050213;28;20107;-53
2022/09/19 04:48:17;;;;;;;6.90;2.25;;;10.50;99.90;;;;;;5050929;28;20179;-48
2022/09/19 04:50:50;;;;;;;4.85;2.20;;;10.50;99.90;;;;;;5051120;28;20071;-48
2022/09/19 04:53:23;;;;;;;3.22;1.90;;;10.50;99.90;;;;;;5051026;28;20075;-48
2022/09/19 04:55:53;;;;;;;7.03;2.05;;;10.50;99.90;;;;;;5050930;28;20043;-50
2022/09/19 04:58:19;;;;;;;3.83;1.83;;;10.50;99.90;;;;;;5050567;28;20017;-46
2022/09/19 05:00:51;;;;;;;5.28;1.75;;;10.50;99.90;;;;;;5051012;28;20020;-44
2022/09/19 05:03:17;;;;;;;3.65;1.63;;;10.50;99.90;;;;;;5051077;28;20060;-50
2022/09/19 05:05:50;;;;;;;3.65;1.67;;;10.60;99.90;;;;;;5049433;28;20418;-51
2022/09/19 05:08:18;;;;;;;2.70;1.67;;;10.60;99.90;;;;;;5050705;28;20040;-48
2022/09/19 05:10:45;;;;;;;4.18;1.90;;;10.60;99.90;;;;;;5051006;28;20306;-51
2022/09/19 05:13:11;;;;;;;3.45;1.75;;;10.60;99.90;;;;;;5051014;28;20033;-48
2022/09/19 05:15:40;;;;;;;2.83;1.80;;;10.60;99.90;;;;;;5050719;28;20016;-49
2022/09/19 05:18:05;;;;;;;5.97;1.63;;;10.70;99.90;;;;;;5050789;28;20033;-51
2022/09/19 05:20:31;;;;;;;1.98;1.38;;;10.70;99.90;;;;;;5050722;28;20083;-49
2022/09/19 05:23:00;;;;;;;2.50;1.38;;;10.70;99.90;;;;;;5050539;28;20071;-46
2022/09/19 05:25:28;;;;;;;2.40;1.40;;;10.70;99.90;;;;;;5050516;28;20032;-49
2022/09/19 05:27:56;;;;;;;3.63;2.03;;;10.80;99.90;;;;;;5050244;28;20048;-45
2022/09/19 05:30:22;;;;;;;4.63;1.75;;;10.80;99.90;;;;;;5050454;28;20025;-48
2022/09/19 05:32:48;;;;;;;4.85;1.90;;;10.80;99.90;;;;;;5050464;28;20021;-45
2022/09/19 05:35:14;;;;;;;3.55;1.85;;;10.80;99.90;;;;;;5050472;28;20025;-50
2022/09/19 05:37:45;;;;;;;3.78;1.80;;;10.70;99.90;;;;;;5050630;28;20025;-46
2022/09/19 05:40:11;;;;;;;4.15;2.00;;;10.70;99.90;;;;;;5050818;28;20029;-48
2022/09/19 05:42:43;;;;;;;2.58;1.63;;;10.60;99.90;;;;;;5050678;28;20021;-47
2022/09/19 05:45:10;;;;;;;3.78;2.20;;;10.40;99.90;;;;;;5050637;28;20018;-46
2022/09/19 05:47:39;;;;;;;3.55;2.10;;;10.40;99.90;;;;;;5050101;28;20048;-48
2022/09/19 05:50:10;;;;;;;3.85;2.25;;;10.50;99.90;;;;;;5050344;28;20103;-44
2022/09/19 05:55:22;;;;;;;11.52;3.35;;;10.50;99.90;;;;;;5050656;28;20519;-48
2022/09/19 05:57:55;;;;;;;6.95;2.15;;;10.50;99.90;;;;;;5051931;28;20025;-51
2022/09/19 06:00:23;;;;;;;3.28;2.00;;;10.50;99.90;;;;;;5053852;28;20029;-44
2022/09/19 06:02:57;;;;;;;3.83;2.00;;;10.40;99.90;;;;;;5054028;28;20480;-47
2022/09/19 06:05:24;;;;;;;4.40;2.30;;;10.30;99.90;;;;;;5054124;28;20102;-48
2022/09/19 06:07:56;;;;;;;3.38;1.85;;;10.40;99.90;;;;;;5054110;28;20078;-45
2022/09/19 06:10:23;;;;;;;5.13;2.28;;;10.40;99.90;;;;;;5053662;28;20112;-49
2022/09/19 06:12:49;;;;;;;4.70;2.28;;;10.40;99.90;;;;;;5053789;28;20013;-45
2022/09/19 06:15:15;;;;;;;5.78;2.10;;;10.50;99.90;;;;;;5050662;28;20040;-46
2022/09/19 06:17:41;;;;;;;7.10;2.45;;;10.60;99.90;;;;;;5053938;28;20029;-47
2022/09/19 06:20:07;;;;;;;2.90;1.98;;;10.60;99.90;;;;;;5053419;28;20021;-47
2022/09/19 06:22:34;;;;;;;3.63;2.47;;;10.60;99.90;;;;;;5053658;28;20025;-48
2022/09/19 06:25:00;;;;;;;8.55;2.42;;;10.70;99.90;;;;;;5053475;28;20025;-56
2022/09/19 06:27:27;;;;;;;4.75;1.98;;;10.80;99.90;;;;;;5053195;28;20032;-50
2022/09/19 06:29:53;;;;;;;3.90;1.95;;;10.90;99.90;;;;;;5053480;28;20036;-50
2022/09/19 06:32:20;;;;;;;3.67;2.00;;;11.00;99.90;;;;;;5053584;28;20088;-51
2022/09/19 06:34:46;;;;;;;6.63;2.33;;;11.30;99.90;;;;;;5053639;28;20101;-48
2022/09/19 06:37:12;;;;;;;7.07;2.33;;;11.40;99.90;;;;;;5053373;28;20025;-50
2022/09/19 06:39:38;;;;;;;4.38;2.13;;;11.60;99.90;;;;;;5053420;28;20013;-53
2022/09/19 06:42:04;;;;;;;4.75;1.80;;;11.80;99.90;;;;;;5053330;28;20112;-52
2022/09/19 06:44:30;;;;;;;2.95;1.73;;;12.00;99.90;;;;;;5053265;28;20096;-47
2022/09/19 06:46:58;;;;;;;7.28;2.30;;;12.10;99.90;;;;;;5051815;28;20122;-50
2022/09/19 06:49:23;;;;;;;6.55;2.20;;;12.20;99.90;;;;;;5053338;28;20060;-45
2022/09/19 06:51:49;;;;;;;6.38;1.80;;;12.30;99.90;;;;;;5053340;28;20388;-47
2022/09/19 06:54:15;;;;;;;4.53;2.13;;;12.40;99.90;;;;;;5053242;28;20036;-49
2022/09/19 06:56:41;;;;;;;3.67;1.80;;;12.50;99.90;;;;;;5053207;28;20471;-44
2022/09/19 06:59:07;;;;;;;3.95;1.90;;;12.50;99.90;;;;;;5053130;28;20105;-46
2022/09/19 07:01:33;;;;;;;6.65;1.95;;;12.60;99.90;;;;;;5052170;28;20040;-46
2022/09/19 07:03:59;;;;;;;3.00;1.90;;;12.70;99.90;;;;;;5050746;28;20130;-51
2022/09/19 07:06:25;;;;;;;4.35;1.60;;;12.70;99.90;;;;;;5047117;28;20067;-45
2022/09/19 07:08:51;;;;;;;3.00;1.75;;;12.70;99.90;;;;;;5050439;28;20122;-48
2022/09/19 07:11:17;;;;;;;3.97;1.80;;;12.80;99.90;;;;;;5044746;28;20051;-56
2022/09/19 07:13:43;;;;;;;5.85;2.10;;;12.80;99.90;;;;;;5052564;28;20032;-57
2022/09/19 07:16:09;;;;;;;3.40;1.60;;;12.90;99.90;;;;;;5052180;28;20100;-45
2022/09/19 07:18:36;;;;;;;6.85;1.85;;;13.00;99.90;;;;;;5052287;28;20115;-48
2022/09/19 07:21:02;;;;;;;4.05;1.80;;;13.10;99.90;;;;;;5050848;28;20025;-51
2022/09/19 07:23:29;;;;;;;6.22;1.67;;;13.20;99.90;;;;;;5051790;28;20017;-50
2022/09/19 07:25:55;;;;;;;4.78;1.70;;;13.40;99.90;;;;;;5052108;28;20067;-54
2022/09/19 07:28:21;;;;;;;3.88;1.42;;;13.50;99.90;;;;;;5052191;28;20040;-47
2022/09/19 07:30:48;;;;;;;4.07;1.45;;;13.60;99.90;;;;;;5050412;28;20147;-45
2022/09/19 07:33:16;;;;;;;4.45;1.38;;;13.60;99.90;;;;;;5051820;28;20025;-45
2022/09/19 07:35:42;;;;;;;3.42;1.30;;;13.60;99.90;;;;;;5051505;28;20029;-44
2022/09/19 07:38:13;;;;;;;5.40;1.40;;;13.70;99.90;;;;;;5051398;28;20021;-43
2022/09/19 07:40:40;;;;;;;3.45;1.17;;;13.70;99.90;;;;;;5047713;28;20036;-44
2022/09/19 07:43:06;;;;;;;5.20;1.20;;;13.80;99.90;;;;;;5051407;28;20510;-52
2022/09/19 07:45:34;;;;;;;4.22;1.33;;;13.90;99.90;;;;;;5051451;28;20025;-47
2022/09/19 07:48:00;;;;;;;4.72;1.45;;;14.10;99.90;;;;;;5049411;28;20045;-47
2022/09/19 07:50:25;;;;;;;7.18;1.50;;;14.10;99.90;;;;;;5050100;28;20033;-52
2022/09/19 07:53:02;;;;;;;7.10;1.52;;;14.20;99.90;;;;;;5050424;28;20028;-49
2022/09/19 07:55:29;;;;;;;6.82;1.42;;;14.30;99.90;;;;;;5052105;28;20036;-48
2022/09/19 07:57:57;;;;;;;6.47;1.52;;;14.40;99.90;;;;;;5081028;28;20507;-45
2022/09/19 08:00:27;;;;;;;4.50;1.40;;;14.50;99.90;;;;;;5051038;28;20114;-44
2022/09/19 08:03:02;;;;;;;2.92;1.20;;;14.60;99.90;;;;;;5051222;28;20025;-46
2022/09/19 08:05:34;;;;;;;2.97;1.30;;;14.70;99.90;;;;;;5048644;28;20025;-49
2022/09/19 08:08:00;;;;;;;3.95;1.20;;;14.80;99.90;;;;;;5051294;28;20116;-52
2022/09/19 08:10:26;;;;;;;3.45;1.30;;;15.00;99.90;;;;;;5043478;28;20025;-50
2022/09/19 08:12:52;;;;;;;5.00;1.25;;;15.10;99.90;;;;;;5059122;28;20032;-46
2022/09/19 08:15:19;;;;;;;4.15;1.20;;;15.20;99.90;;;;;;5053519;28;20024;-52
2022/09/19 08:17:58;;;;;;;5.68;1.30;;;15.20;99.90;;;;;;5045703;28;20079;-52
2022/09/19 08:20:26;;;;;;;6.22;1.38;;;15.40;99.90;;;;;;5041755;28;20051;-46
2022/09/19 08:23:00;;;;;;;3.25;1.33;;;15.70;99.90;;;;;;5053597;28;20399;-51
2022/09/19 08:25:27;;;;;;;3.47;1.20;;;15.90;99.90;;;;;;5048389;28;20276;-51
2022/09/19 08:27:53;;;;;;;3.67;1.30;;;16.00;99.90;;;;;;5048346;28;20033;-46
2022/09/19 08:30:19;;;;;;;4.25;1.25;;;16.20;99.90;;;;;;5048424;28;20029;-48
2022/09/19 08:32:46;;;;;;;4.88;1.42;;;16.40;99.90;;;;;;5048416;28;20029;-49
2022/09/19 08:35:14;;;;;;;5.93;1.17;;;16.70;99.90;;;;;;5048775;28;20420;-45
2022/09/19 08:37:39;;;;;;;4.85;1.30;;;16.90;99.90;;;;;;5048358;28;20021;-52
2022/09/19 08:40:18;;;;;;;4.75;1.40;;;17.10;99.90;;;;;;5049712;28;20016;-53
2022/09/19 08:43:09;;;;;;;3.83;1.10;;;17.20;99.90;;;;;;5050469;28;20389;-49
2022/09/19 08:46:03;;;;;;;5.07;1.02;;;17.20;99.90;;;;;;5050860;28;20110;-51
2022/09/19 08:48:38;;;;;;;2.83;1.17;;;17.30;99.90;;;;;;5040958;28;20128;-48
2022/09/19 08:51:22;;;;;;;4.43;1.23;;;17.40;99.90;;;;;;5050790;28;20131;-53
2022/09/19 08:53:53;;;;;;;2.08;1.02;;;17.40;99.90;;;;;;5051303;28;20021;-45
2022/09/19 08:56:19;;;;;;;5.43;1.17;;;17.40;99.90;;;;;;5050745;28;20031;-49
2022/09/19 08:58:50;;;;;;;3.85;0.93;;;17.20;99.90;;;;;;5050461;28;20092;-45
2022/09/19 09:01:17;;;;;;;4.03;1.20;;;17.20;99.90;;;;;;5050884;28;20120;-50
2022/09/19 09:04:11;;;;;;;4.18;1.10;;;17.30;99.90;;;;;;5050771;28;20108;-50
2022/09/19 09:07:06;;;;;;;3.17;1.05;;;17.50;99.90;;;;;;5050496;28;20475;-46
2022/09/19 09:09:50;;;;;;;4.75;1.55;;;17.80;99.90;;;;;;5029183;28;20521;-45
2022/09/19 09:12:32;;;;;;;5.85;1.08;;;17.80;99.90;;;;;;5051091;28;20026;-49
2022/09/19 09:15:10;;;;;;;4.18;1.00;;;17.90;99.90;;;;;;5050828;28;20421;-45
2022/09/19 09:17:57;;;;;;;4.88;1.38;;;17.90;99.90;;;;;;5049521;28;20029;-47
2022/09/19 09:20:44;;;;;;;4.20;1.10;;;18.10;99.90;;;;;;5050782;28;20068;-48
2022/09/19 09:23:26;;;;;;;3.17;1.10;;;18.10;99.90;;;;;;5041040;28;20095;-45
2022/09/19 09:26:00;;;;;;;3.65;1.10;;;18.00;99.90;;;;;;5048542;28;20021;-50
2022/09/19 09:28:45;;;;;;;6.53;1.20;;;18.00;99.90;;;;;;5048625;28;20391;-50
2022/09/19 09:31:19;;;;;;;5.35;1.10;;;17.80;99.90;;;;;;5049204;28;20063;-45
2022/09/19 09:33:57;;;;;;;4.32;1.02;;;17.60;99.90;;;;;;5054229;28;20086;-47
2022/09/19 09:36:31;;;;;;;3.40;1.02;;;17.40;99.90;;;;;;5054649;28;20033;-46
2022/09/19 09:42:30;;;;;;;3.28;1.10;;;17.20;99.90;;;;;;5054594;28;20036;-49
2022/09/19 09:45:26;;;;;;;2.45;0.80;;;17.10;99.90;;;;;;5055233;28;20404;-46
2022/09/19 09:48:16;;;;;;;2.92;0.70;;;16.90;99.90;;;;;;5049224;28;20127;-49
2022/09/19 09:50:49;;;;;;;3.97;0.80;;;17.10;99.90;;;;;;5054005;28;20029;-49
2022/09/19 09:53:48;;;;;;;4.47;0.90;;;17.10;99.90;;;;;;5055687;28;20021;-48
2022/09/19 09:56:36;;;;;;;4.18;0.80;;;17.20;99.70;;;;;;5051634;28;20112;-45
2022/09/19 09:59:01;;;;;;;1.98;0.68;;;17.10;99.90;;;;;;5054048;28;20114;-52
2022/09/19 10:04:45;;;;;;;3.80;0.73;;;17.20;99.90;;;;;;5047960;28;20040;-46
2022/09/19 10:07:25;;;;;;;2.83;0.80;;;17.50;99.90;;;;;;5054343;28;20021;-53
2022/09/19 10:10:00;;;;;;;2.78;0.70;;;17.60;99.90;;;;;;5052657;28;20128;-52
2022/09/19 10:12:39;;;;;;;2.42;0.80;;;17.60;98.80;;;;;;5054080;28;20044;-50
2022/09/19 10:15:09;;;;;;;4.03;1.20;;;17.50;97.80;;;;;;5053983;28;20025;-52
2022/09/19 10:17:39;;;;;;;2.28;0.90;;;17.80;99.10;;;;;;5048278;28;20021;-45
2022/09/19 10:20:15;;;;;;;3.15;1.08;;;17.90;98.80;;;;;;5047652;28;20075;-43
2022/09/19 10:22:41;;;;;;;4.07;1.05;;;18.00;98.50;;;;;;5047872;28;20024;-45
2022/09/19 10:25:14;;;;;;;7.28;2.17;;;18.10;98.70;;;;;;5053541;28;20029;-47
2022/09/19 10:27:45;;;;;;;3.47;1.02;;;18.00;96.30;;;;;;5046547;28;20458;-45
2022/09/19 10:30:19;;;;;;;3.38;0.88;;;18.10;97.40;;;;;;5053533;28;20044;-51
2022/09/19 10:32:47;;;;;;;3.40;0.90;;;17.90;96.80;;;;;;5053512;28;20484;-46
2022/09/19 10:35:27;;;;;;;3.38;0.88;;;18.20;97.90;;;;;;5052101;28;20656;-51
2022/09/19 10:38:15;;;;;;;3.00;0.80;;;18.40;96.30;;;;;;5053704;28;20480;-46
2022/09/19 10:40:56;;;;;;;2.50;0.75;;;18.40;96.50;;;;;;5042321;28;20020;-51
2022/09/19 10:43:37;;;;;;;4.93;0.77;;;18.80;97.00;;;;;;5052247;28;20468;-50
2022/09/19 10:46:07;;;;;;;3.28;0.70;;;19.20;96.10;;;;;;5046678;28;20053;-45
2022/09/19 10:48:36;;;;;;;1.83;0.63;;;20.50;97.80;;;;;;5051565;28;20040;-47
2022/09/19 10:51:08;;;;;;;2.55;0.95;;;22.10;94.60;;;;;;5052084;28;20484;-48
2022/09/19 10:53:36;;;;;;;1.80;0.82;;;23.10;93.30;;;;;;5049414;28;20075;-49
2022/09/19 10:56:11;;;;;;;2.95;0.90;;;23.60;85.60;;;;;;5049297;28;20025;-45
2022/09/19 10:58:43;;;;;;;2.25;0.90;;;23.70;88.10;;;;;;5052892;28;20013;-45
2022/09/19 11:01:21;;;;;;;3.38;0.90;;;23.40;86.80;;;;;;5053461;28;20033;-45
2022/09/19 11:04:04;;;;;;;3.65;1.15;;;23.10;83.50;;;;;;5051390;28;20040;-44
2022/09/19 11:06:32;;;;;;;5.18;1.67;;;23.40;86.40;;;;;;5048436;28;20096;-46
2022/09/19 11:09:00;;;;;;;3.15;0.90;;;23.30;86.40;;;;;;5047251;28;20071;-46
2022/09/19 11:11:45;;;;;;;2.42;0.85;;;22.90;91.10;;;;;;5053106;28;20021;-44
2022/09/19 11:14:28;;;;;;;4.63;1.00;;;23.30;87.60;;;;;;5046503;28;20487;-44
2022/09/19 11:17:46;;;;;;;2.90;0.77;;;23.20;86.00;;;;;;5049180;28;20094;-47
2022/09/19 11:20:41;;;;;;;4.47;0.73;;;23.20;87.50;;;;;;5048228;28;20044;-53
2022/09/19 11:23:38;;;;;;;4.47;1.20;;;23.40;84.80;;;;;;5041527;28;20033;-45
2022/09/19 11:26:33;;;;;;;2.15;0.90;;;23.20;84.10;;;;;;5049062;28;20021;-44
2022/09/19 11:29:09;;;;;;;2.53;0.88;;;23.40;84.40;;;;;;5052663;28;20033;-47
2022/09/19 11:32:03;;;;;;;2.92;0.77;;;23.80;89.10;;;;;;5052387;28;20112;-45
2022/09/19 11:34:42;;;;;;;2.47;0.80;;;23.90;85.20;;;;;;5052548;28;20100;-48
2022/09/19 11:37:54;;;;;;;3.50;0.93;;;24.10;82.40;;;;;;5052290;28;20476;-44
2022/09/19 11:40:47;;;;;;;3.70;1.10;;;24.10;80.10;;;;;;5025557;28;20037;-46
2022/09/19 11:43:18;;;;;;;3.10;1.00;;;24.30;83.40;;;;;;5052493;28;20021;-45
2022/09/19 11:46:03;;;;;;;2.42;0.95;;;24.60;81.90;;;;;;5047745;28;20024;-52
2022/09/19 11:48:53;;;;;;;1.85;0.90;;;25.00;80.00;;;;;;5048196;28;20042;-46
2022/09/19 11:51:32;;;;;;;2.40;1.10;;;25.50;77.70;;;;;;5048425;28;20162;-49
2022/09/19 11:54:44;;;;;;;4.18;1.20;;;25.70;76.40;;;;;;5051713;28;20488;-51
2022/09/19 11:57:30;;;;;;;3.50;1.33;;;25.80;74.80;;;;;;5039743;28;20033;-47
2022/09/19 12:00:08;;;;;;;2.03;1.00;;;25.80;73.10;;;;;;5045082;28;20504;-51
2022/09/19 12:02:58;;;;;;;3.33;1.08;;;26.20;75.00;;;;;;5050111;28;20021;-52
2022/09/19 12:05:49;;;;;;;3.10;1.08;;;26.90;70.60;;;;;;5051947;28;20025;-50
2022/09/19 12:08:21;;;;;;;3.70;1.20;;;27.40;70.70;;;;;;5046636;28;20067;-46
2022/09/19 12:10:54;;;;;;;3.60;1.02;;;28.00;68.60;;;;;;5051767;28;20021;-44
2022/09/19 12:13:35;;;;;;;3.85;1.20;;;27.40;68.90;;;;;;5051388;28;20024;-53
2022/09/19 12:16:10;;;;;;;3.22;1.20;;;26.30;70.00;;;;;;5049672;28;20063;-50
2022/09/19 12:18:52;;;;;;;5.07;0.90;;;25.50;73.10;;;;;;5048273;28;20033;-52
2022/09/19 12:21:22;;;;;;;3.72;1.23;;;25.30;75.00;;;;;;5048314;28;20032;-46
2022/09/19 12:26:49;;;;;;;2.75;0.93;;;24.60;76.80;;;;;;5049431;28;20134;-48
2022/09/19 12:29:34;;;;;;;4.00;1.30;;;24.80;77.10;;;;;;5050654;28;20523;-52
2022/09/19 12:32:14;;;;;;;3.00;0.90;;;24.30;75.20;;;;;;5048725;28;20040;-50
2022/09/19 12:34:55;;;;;;;3.17;0.93;;;23.50;76.70;;;;;;5044612;28;20030;-47
2022/09/19 12:37:30;;;;;;;2.83;0.80;;;22.90;78.60;;;;;;5049488;28;20029;-48
2022/09/19 12:40:06;;;;;;;3.13;0.93;;;22.80;79.50;;;;;;5041040;28;20025;-48
2022/09/19 12:42:49;;;;;;;2.17;0.95;;;23.10;84.30;;;;;;5051009;28;20051;-51
2022/09/19 12:45:19;;;;;;;3.35;0.85;;;23.10;80.30;;;;;;5050637;28;20090;-45
2022/09/19 12:48:20;;;;;;;1.92;0.85;;;23.40;81.00;;;;;;5048739;28;20115;-47
2022/09/19 12:50:52;;;;;;;3.38;1.00;;;23.60;79.40;;;;;;5044659;28;20030;-49
2022/09/19 12:53:35;;;;;;;2.53;0.90;;;23.30;81.60;;;;;;5050195;28;20017;-50
2022/09/19 12:56:13;;;;;;;2.65;0.80;;;22.30;77.80;;;;;;5038455;28;20029;-44
2022/09/19 12:59:06;;;;;;;2.90;1.15;;;22.00;81.50;;;;;;5044169;28;20116;-50
2022/09/19 13:01:47;;;;;;;3.85;0.82;;;22.10;83.80;;;;;;5045882;28;20429;-45
2022/09/19 13:04:27;;;;;;;2.47;0.75;;;22.50;79.70;;;;;;5045345;28;20057;-54
2022/09/19 13:06:55;;;;;;;3.08;1.00;;;22.70;80.50;;;;;;5046570;28;20488;-51
2022/09/19 13:09:34;;;;;;;1.95;0.70;;;22.80;83.30;;;;;;5050022;28;20044;-46
2022/09/19 13:12:05;;;;;;;;;;;22.70;82.70;;;;;;5050678;28;20032;-48
2022/09/19 13:14:54;;;;;;;3.78;1.02;;;22.90;80.30;;;;;;5047290;28;19909;-48
2022/09/19 13:23:32;;;;;;;2.28;0.90;;;22.80;80.30;;;;;;5049689;28;20023;-45
2022/09/19 13:26:25;;;;;;;3.50;0.82;;;22.90;84.50;;;;;;5049671;28;20028;-44
2022/09/19 13:28:58;;;;;;;1.75;0.80;;;23.00;84.60;;;;;;5042310;28;20037;-45
2022/09/19 13:31:46;;;;;;;2.63;0.90;;;23.00;81.30;;;;;;5041726;28;20070;-45
2022/09/19 13:35:00;;;;;;;2.67;1.10;;;22.80;83.50;;;;;;5028906;28;20055;-49
2022/09/19 13:37:34;;;;;;;2.28;0.90;;;22.80;83.40;;;;;;5042693;28;20037;-47
2022/09/19 13:40:14;;;;;;;2.25;1.00;;;23.00;82.80;;;;;;5050367;28;20032;-52
2022/09/19 13:42:51;;;;;;;4.07;1.10;;;22.90;80.90;;;;;;5050342;28;20041;-45
2022/09/19 13:45:39;;;;;;;2.78;1.00;;;22.80;82.30;;;;;;5050635;28;20060;-50